createdAt,value
2019-04-24T00:00:26.431Z,67.16
2019-04-24T00:01:08.300Z,67.46
2019-04-24T00:02:39.283Z,67.46
2019-04-24T00:03:18.132Z,67.66
2019-04-24T00:04:19.049Z,67.90
2019-04-24T00:05:29.025Z,67.66
2019-04-24T00:06:12.488Z,67.26
2019-04-24T00:07:16.987Z,67.66
2019-04-24T00:09:07.839Z,67.97
2019-04-24T00:10:11.689Z,68.10
2019-04-24T00:12:10.406Z,68.31
2019-04-24T00:13:17.167Z,68.31
2019-04-24T00:15:27.652Z,68.51
2019-04-24T00:16:08.699Z,68.41
2019-04-24T00:17:10.964Z,68.62
2019-04-24T00:21:11.276Z,68.51
2019-04-24T00:22:08.869Z,68.71
2019-04-24T00:23:12.415Z,68.71
2019-04-24T00:24:14.411Z,68.62
2019-04-24T00:25:09.066Z,68.51
2019-04-24T00:26:14.658Z,68.71
2019-04-24T00:27:13.953Z,68.71
2019-04-24T00:28:16.396Z,68.95
2019-04-24T00:30:01.896Z,69.02
2019-04-24T00:33:15.227Z,69.53
2019-04-24T00:34:16.398Z,69.23
2019-04-24T00:35:20.174Z,69.43
2019-04-24T00:36:27.517Z,69.02
2019-04-24T00:37:19.838Z,68.92
2019-04-24T00:38:12.525Z,68.82
2019-04-24T00:39:52.783Z,68.62
2019-04-24T00:42:09.793Z,68.41
2019-04-24T00:44:06.377Z,68.48
2019-04-24T00:46:19.637Z,68.48
2019-04-24T00:47:11.755Z,68.48
2019-04-24T00:49:18.293Z,68.58
2019-04-24T00:50:05.957Z,68.48
2019-04-24T00:51:17.863Z,68.58
2019-04-24T00:52:04.120Z,68.58
2019-04-24T00:54:09.363Z,68.38
2019-04-24T00:56:13.934Z,68.48
2019-04-24T00:57:06.805Z,68.48
2019-04-24T00:59:17.905Z,68.48
2019-04-24T01:00:04.269Z,68.48
2019-04-24T01:01:22.619Z,68.58
2019-04-24T01:02:13.205Z,68.88
2019-04-24T01:04:26.620Z,68.92
2019-04-24T01:07:20.037Z,69.02
2019-04-24T01:08:06.612Z,69.02
2019-04-24T01:09:14.971Z,69.09
2019-04-24T01:10:18.587Z,69.02
2019-04-24T01:12:11.708Z,69.12
2019-04-24T01:13:13.013Z,69.12
2019-04-24T01:14:12.535Z,69.19
2019-04-24T01:15:17.674Z,69.09
2019-04-24T01:16:15.944Z,69.12
2019-04-24T01:17:14.141Z,69.02
2019-04-24T01:17:55.820Z,68.99
2019-04-24T01:19:04.798Z,69.09
2019-04-24T01:20:24.210Z,68.99
2019-04-24T01:21:07.290Z,69.19
2019-04-24T01:22:19.433Z,69.53
2019-04-24T01:23:08.300Z,69.53
2019-04-24T01:25:23.282Z,69.09
2019-04-24T01:27:10.397Z,69.09
2019-04-24T01:28:08.682Z,69.19
2019-04-24T01:29:17.098Z,69.19
2019-04-24T01:30:23.431Z,68.99
2019-04-24T01:32:09.311Z,69.19
2019-04-24T01:33:16.337Z,68.99
2019-04-24T01:34:10.624Z,68.99
2019-04-24T01:35:12.517Z,69.09
2019-04-24T01:36:17.971Z,68.85
2019-04-24T01:37:06.862Z,68.65
2019-04-24T01:38:11.076Z,68.55
2019-04-24T01:40:11.813Z,68.44
2019-04-24T01:41:07.262Z,68.44
2019-04-24T01:42:16.452Z,68.68
2019-04-24T01:43:10.208Z,68.75
2019-04-24T01:44:09.385Z,68.85
2019-04-24T01:45:16.554Z,68.85
2019-04-24T01:46:08.378Z,68.75
2019-04-24T01:47:16.619Z,68.55
2019-04-24T01:49:11.569Z,68.88
2019-04-24T01:51:07.906Z,68.75
2019-04-24T01:53:05.762Z,68.85
2019-04-24T01:54:12.447Z,68.55
2019-04-24T01:55:07.528Z,68.85
2019-04-24T01:56:08.893Z,68.88
2019-04-24T01:57:20.947Z,68.75
2019-04-24T01:58:06.910Z,68.65
2019-04-24T01:59:11.774Z,68.65
2019-04-24T02:00:28.882Z,69.06
2019-04-24T02:01:11.050Z,68.96
2019-04-24T02:02:17.469Z,68.96
2019-04-24T02:02:59.402Z,69.09
2019-04-24T02:04:03.540Z,69.06
2019-04-24T02:05:09.756Z,69.09
2019-04-24T02:06:11.743Z,69.40
2019-04-24T02:07:11.119Z,69.49
2019-04-24T02:08:15.169Z,69.70
2019-04-24T02:09:06.813Z,69.60
2019-04-24T02:10:26.369Z,69.70
2019-04-24T02:11:34.045Z,69.90
2019-04-24T02:12:04.951Z,69.80
2019-04-24T02:13:24.033Z,69.80
2019-04-24T02:14:10.059Z,69.80
2019-04-24T02:16:00.433Z,69.70
2019-04-24T02:17:10.406Z,69.90
2019-04-24T02:18:11.540Z,69.90
2019-04-24T02:19:00.907Z,69.90
2019-04-24T02:20:15.017Z,69.80
2019-04-24T02:21:09.794Z,69.90
2019-04-24T02:22:26.121Z,70.24
2019-04-24T02:24:10.076Z,70.21
2019-04-24T02:25:22.737Z,70.04
2019-04-24T02:26:12.446Z,70.34
2019-04-24T02:27:02.256Z,70.34
2019-04-24T02:28:16.923Z,70.34
2019-04-24T02:30:08.954Z,70.45
2019-04-24T02:31:17.817Z,70.41
2019-04-24T02:32:29.870Z,70.62
2019-04-24T02:33:32.804Z,70.55
2019-04-24T02:34:08.488Z,70.75
2019-04-24T02:36:35.949Z,70.65
2019-04-24T02:37:26.728Z,70.55
2019-04-24T02:40:28.504Z,70.86
2019-04-24T02:41:35.227Z,71.19
2019-04-24T02:42:23.761Z,70.99
2019-04-24T02:45:21.492Z,70.95
2019-04-24T02:47:05.828Z,70.95
2019-04-24T02:48:17.844Z,70.86
2019-04-24T02:51:16.320Z,70.86
2019-04-24T02:53:12.938Z,70.75
2019-04-24T02:55:13.570Z,70.65
2019-04-24T02:56:17.271Z,70.86
2019-04-24T02:58:13.543Z,71.09
2019-04-24T03:00:12.194Z,71.50
2019-04-24T03:01:06.691Z,71.60
2019-04-24T03:02:19.970Z,71.30
2019-04-24T03:03:17.353Z,72.11
2019-04-24T03:04:12.604Z,72.31
2019-04-24T03:05:27.918Z,71.91
2019-04-24T03:07:14.321Z,72.21
2019-04-24T03:11:16.437Z,72.96
2019-04-24T03:16:30.464Z,72.86
2019-04-24T03:17:22.870Z,72.75
2019-04-24T03:18:10.283Z,72.55
2019-04-24T03:20:12.526Z,72.55
2019-04-24T03:21:38.927Z,72.58
2019-04-24T03:24:21.307Z,72.75
2019-04-24T03:25:47.460Z,72.65
2019-04-24T03:30:24.140Z,72.45
2019-04-24T03:32:51.248Z,72.55
2019-04-24T03:35:32.421Z,72.58
2019-04-24T03:38:42.868Z,72.89
2019-04-24T03:39:34.110Z,72.86
2019-04-24T03:44:37.749Z,72.55
2019-04-24T03:47:06.864Z,72.55
2019-04-24T03:49:17.622Z,72.55
2019-04-24T03:50:26.195Z,72.45
2019-04-24T03:53:42.612Z,72.86
2019-04-24T03:57:09.408Z,72.86
2019-04-24T03:58:20.310Z,72.34
2019-04-24T03:59:11.004Z,72.21
2019-04-24T04:04:12.865Z,72.01
2019-04-24T04:06:00.705Z,72.21
2019-04-24T04:08:15.836Z,71.50
2019-04-24T04:09:12.207Z,71.30
2019-04-24T04:11:12.268Z,71.39
2019-04-24T04:13:29.854Z,70.99
2019-04-24T04:14:01.565Z,71.19
2019-04-24T04:15:16.248Z,70.58
2019-04-24T04:17:09.026Z,71.06
2019-04-24T04:18:37.205Z,70.65
2019-04-24T04:20:24.685Z,70.86
2019-04-24T04:22:33.851Z,70.55
2019-04-24T04:24:33.165Z,70.58
2019-04-24T04:29:35.304Z,70.31
2019-04-24T04:30:10.188Z,69.93
2019-04-24T04:32:01.354Z,69.80
2019-04-24T04:33:14.366Z,69.60
2019-04-24T04:34:14.780Z,69.40
2019-04-24T04:35:02.292Z,69.60
2019-04-24T04:38:13.100Z,69.29
2019-04-24T04:40:09.267Z,69.09
2019-04-24T04:41:58.914Z,68.75
2019-04-24T04:43:08.365Z,68.85
2019-04-24T04:45:11.358Z,68.55
2019-04-24T04:47:12.553Z,68.35
2019-04-24T04:47:57.640Z,68.32
2019-04-24T04:49:18.806Z,68.55
2019-04-24T04:52:31.429Z,68.11
2019-04-24T04:53:35.155Z,68.01
2019-04-24T04:54:06.885Z,68.01
2019-04-24T04:57:14.062Z,67.47
2019-04-24T04:58:19.502Z,67.47
2019-04-24T05:05:36.173Z,66.83
2019-04-24T05:06:57.205Z,66.63
2019-04-24T05:08:15.453Z,67.27
2019-04-24T05:11:04.360Z,66.96
2019-04-24T05:13:02.082Z,67.36
2019-04-24T05:16:16.623Z,68.01
2019-04-24T05:18:12.254Z,67.97
2019-04-24T05:19:47.684Z,67.91
2019-04-24T05:22:16.494Z,68.11
2019-04-24T05:22:59.031Z,68.01
2019-04-24T05:25:11.886Z,68.11
2019-04-24T05:26:21.006Z,67.60
2019-04-24T05:28:03.105Z,68.21
2019-04-24T05:31:11.478Z,67.91
2019-04-24T05:34:03.746Z,67.91
2019-04-24T05:35:55.235Z,67.97
2019-04-24T05:37:01.807Z,67.88
2019-04-24T05:39:58.775Z,67.47
2019-04-24T05:40:49.239Z,67.77
2019-04-24T05:42:06.483Z,67.77
2019-04-24T05:43:58.607Z,67.13
2019-04-24T05:46:55.890Z,66.80
2019-04-24T05:48:58.708Z,66.60
2019-04-24T05:50:58.020Z,66.08
2019-04-24T05:51:54.572Z,65.45
2019-04-24T05:54:53.357Z,65.55
2019-04-24T05:57:09.599Z,65.75
2019-04-24T05:58:14.315Z,65.85
2019-04-24T05:59:05.442Z,65.14
2019-04-24T05:59:57.473Z,64.73
2019-04-24T06:01:01.194Z,65.45
2019-04-24T06:02:20.237Z,65.31
2019-04-24T06:02:56.925Z,64.70
2019-04-24T06:06:12.002Z,64.40
2019-04-24T06:07:00.504Z,64.81
2019-04-24T06:08:07.040Z,64.61
2019-04-24T06:08:58.710Z,64.27
2019-04-24T06:10:03.148Z,63.35
2019-04-24T06:11:58.296Z,63.76
2019-04-24T06:13:04.537Z,63.53
2019-04-24T06:13:50.395Z,63.02
2019-04-24T06:15:59.183Z,63.02
2019-04-24T06:16:58.210Z,62.41
2019-04-24T06:19:05.685Z,62.72
2019-04-24T06:20:01.872Z,61.80
2019-04-24T06:21:01.961Z,63.23
2019-04-24T06:22:01.804Z,63.02
2019-04-24T06:23:00.454Z,62.79
2019-04-24T06:25:25.860Z,62.59
2019-04-24T06:26:15.914Z,61.80
2019-04-24T06:27:03.800Z,62.62
2019-04-24T06:27:57.401Z,62.69
2019-04-24T06:33:12.012Z,61.55
2019-04-24T06:34:19.977Z,61.58
2019-04-24T06:36:19.548Z,61.68
2019-04-24T06:38:24.748Z,61.75
2019-04-24T06:39:28.748Z,61.14
2019-04-24T06:44:42.801Z,60.17
2019-04-24T06:45:21.091Z,60.58
2019-04-24T06:46:16.441Z,60.14
2019-04-24T06:47:49.641Z,60.05
2019-04-24T06:48:12.457Z,59.81
2019-04-24T06:50:28.985Z,58.80
2019-04-24T06:51:16.214Z,59.03
2019-04-24T06:53:03.828Z,59.44
2019-04-24T06:54:23.401Z,59.54
2019-04-24T06:55:13.482Z,59.64
2019-04-24T06:58:11.757Z,59.64
2019-04-24T06:59:20.483Z,59.84
2019-04-24T07:00:28.239Z,59.54
2019-04-24T07:01:16.791Z,59.84
2019-04-24T07:02:11.391Z,59.97
2019-04-24T07:03:14.402Z,59.97
2019-04-24T07:04:37.603Z,60.17
2019-04-24T07:05:30.930Z,60.27
2019-04-24T07:06:22.483Z,60.38
2019-04-24T07:07:33.785Z,59.97
2019-04-24T07:07:59.666Z,60.38
2019-04-24T07:09:30.636Z,60.25
2019-04-24T07:10:33.650Z,59.87
2019-04-24T07:11:18.471Z,59.84
2019-04-24T07:13:49.234Z,59.94
2019-04-24T07:15:19.649Z,59.74
2019-04-24T07:17:07.187Z,59.64
2019-04-24T07:19:07.711Z,59.23
2019-04-24T07:20:27.176Z,59.77
2019-04-24T07:21:12.330Z,59.67
2019-04-24T07:23:26.178Z,59.64
2019-04-24T07:24:18.480Z,59.54
2019-04-24T07:25:21.134Z,59.94
2019-04-24T07:26:13.877Z,59.74
2019-04-24T07:27:33.710Z,59.94
2019-04-24T07:30:19.798Z,59.00
2019-04-24T07:31:35.602Z,59.21
2019-04-24T07:32:15.638Z,59.31
2019-04-24T07:36:17.602Z,59.00
2019-04-24T07:37:27.200Z,58.93
2019-04-24T07:38:19.252Z,58.91
2019-04-24T07:39:23.580Z,59.31
2019-04-24T07:40:08.692Z,59.84
2019-04-24T07:41:19.113Z,59.74
2019-04-24T07:42:14.517Z,59.94
2019-04-24T07:44:13.340Z,58.98
2019-04-24T07:45:28.690Z,59.00
2019-04-24T07:46:18.750Z,58.17
2019-04-24T07:47:14.793Z,58.40
2019-04-24T07:48:22.508Z,59.21
2019-04-24T07:50:19.775Z,59.21
2019-04-24T07:51:31.086Z,59.11
2019-04-24T07:53:42.875Z,58.58
2019-04-24T07:55:17.915Z,58.67
2019-04-24T07:56:20.001Z,57.76
2019-04-24T07:58:17.442Z,57.97
2019-04-24T07:59:36.699Z,58.07
2019-04-24T08:01:30.439Z,59.00
2019-04-24T08:02:19.031Z,58.40
2019-04-24T08:03:24.664Z,58.91
2019-04-24T08:04:29.637Z,59.11
2019-04-24T08:05:08.283Z,59.21
2019-04-24T08:06:29.405Z,59.21
2019-04-24T08:07:28.663Z,59.28
2019-04-24T08:08:10.590Z,59.31
2019-04-24T08:09:28.181Z,58.70
2019-04-24T08:10:27.855Z,59.11
2019-04-24T08:11:07.920Z,59.21
2019-04-24T08:12:16.603Z,58.87
2019-04-24T08:14:31.029Z,59.28
2019-04-24T08:17:31.387Z,59.66
2019-04-24T08:19:22.281Z,57.61
2019-04-24T08:20:18.960Z,57.81
2019-04-24T08:21:01.375Z,57.34
2019-04-24T08:22:33.096Z,57.51
2019-04-24T08:23:17.783Z,57.94
2019-04-24T08:24:35.160Z,57.31
2019-04-24T08:25:18.961Z,57.91
2019-04-24T08:28:11.272Z,57.91
2019-04-24T08:29:07.745Z,57.41
2019-04-24T08:31:21.128Z,57.71
2019-04-24T08:32:21.613Z,57.31
2019-04-24T08:33:29.405Z,57.91
2019-04-24T08:35:25.251Z,58.14
2019-04-24T08:36:06.627Z,57.64
2019-04-24T08:37:21.631Z,57.61
2019-04-24T08:38:18.905Z,57.61
2019-04-24T08:39:29.481Z,57.71
2019-04-24T08:40:16.846Z,57.10
2019-04-24T08:41:22.015Z,57.01
2019-04-24T08:44:15.801Z,57.94
2019-04-24T08:46:18.925Z,57.51
2019-04-24T08:47:12.449Z,57.91
2019-04-24T08:48:20.796Z,57.21
2019-04-24T08:50:33.797Z,57.31
2019-04-24T08:51:21.421Z,57.91
2019-04-24T08:52:44.774Z,57.61
2019-04-24T08:53:30.958Z,57.31
2019-04-24T08:55:19.472Z,57.38
2019-04-24T08:56:08.901Z,57.18
2019-04-24T08:57:15.352Z,56.95
2019-04-24T08:59:22.057Z,56.45
2019-04-24T09:01:19.070Z,55.36
2019-04-24T09:02:08.443Z,56.24
2019-04-24T09:04:15.835Z,56.24
2019-04-24T09:05:02.973Z,55.97
2019-04-24T09:06:03.749Z,56.37
2019-04-24T09:07:08.360Z,56.48
2019-04-24T09:08:19.992Z,56.17
2019-04-24T09:09:26.188Z,56.37
2019-04-24T09:10:36.037Z,56.27
2019-04-24T09:12:21.348Z,55.64
2019-04-24T09:15:23.024Z,56.04
2019-04-24T09:16:28.900Z,56.24
2019-04-24T09:17:12.492Z,55.34
2019-04-24T09:18:15.208Z,56.75
2019-04-24T09:20:23.432Z,56.65
2019-04-24T09:21:15.737Z,56.72
2019-04-24T09:22:12.600Z,55.51
2019-04-24T09:23:21.907Z,56.02
2019-04-24T09:25:18.013Z,55.89
2019-04-24T09:26:45.303Z,55.99
2019-04-24T09:27:21.748Z,56.20
2019-04-24T09:28:15.591Z,55.19
2019-04-24T09:29:43.342Z,54.79
2019-04-24T09:30:20.182Z,55.19
2019-04-24T09:31:12.645Z,55.41
2019-04-24T09:33:16.583Z,55.08
2019-04-24T09:35:15.270Z,56.09
2019-04-24T09:36:37.435Z,55.96
2019-04-24T09:37:07.137Z,55.16
2019-04-24T09:39:15.451Z,54.25
2019-04-24T09:40:37.911Z,53.55
2019-04-24T09:43:27.859Z,54.15
2019-04-24T09:44:24.573Z,53.92
2019-04-24T09:45:15.035Z,53.72
2019-04-24T09:46:09.647Z,53.75
2019-04-24T09:47:12.801Z,53.72
2019-04-24T09:48:17.133Z,53.52
2019-04-24T09:50:21.287Z,53.75
2019-04-24T09:52:21.397Z,54.05
2019-04-24T09:53:34.985Z,54.86
2019-04-24T09:55:15.709Z,54.10
2019-04-24T09:56:03.688Z,54.00
2019-04-24T09:58:14.409Z,53.57
2019-04-24T09:59:15.721Z,53.97
2019-04-24T10:00:04.807Z,53.67
2019-04-24T10:01:25.341Z,53.45
2019-04-24T10:02:17.681Z,53.85
2019-04-24T10:03:18.853Z,52.55
2019-04-24T10:04:28.226Z,52.84
2019-04-24T10:07:21.643Z,52.84
2019-04-24T10:08:12.639Z,52.64
2019-04-24T10:09:10.373Z,52.62
2019-04-24T10:10:32.925Z,51.72
2019-04-24T10:11:22.025Z,51.92
2019-04-24T10:13:08.083Z,51.81
2019-04-24T10:14:10.132Z,51.79
2019-04-24T10:15:05.876Z,50.81
2019-04-24T10:16:10.621Z,51.69
2019-04-24T10:19:25.155Z,51.09
2019-04-24T10:20:22.437Z,50.79
2019-04-24T10:21:05.299Z,50.89
2019-04-24T10:22:04.768Z,51.09
2019-04-24T10:24:06.735Z,50.59
2019-04-24T10:25:12.216Z,50.56
2019-04-24T10:26:07.084Z,50.06
2019-04-24T10:27:13.933Z,50.44
2019-04-24T10:29:24.462Z,50.36
2019-04-24T10:30:07.873Z,50.24
2019-04-24T10:31:09.837Z,50.44
2019-04-24T10:34:05.878Z,49.81
2019-04-24T10:35:10.770Z,49.41
2019-04-24T10:36:04.517Z,49.01
2019-04-24T10:37:12.458Z,49.61
2019-04-24T10:39:16.759Z,48.81
2019-04-24T10:40:18.418Z,48.61
2019-04-24T10:41:09.933Z,48.41
2019-04-24T10:42:05.049Z,48.89
2019-04-24T10:43:04.292Z,48.41
2019-04-24T10:44:13.232Z,48.31
2019-04-24T10:45:12.070Z,48.83
2019-04-24T10:46:08.566Z,48.91
2019-04-24T10:47:23.444Z,49.41
2019-04-24T10:48:06.440Z,49.21
2019-04-24T10:49:13.558Z,49.79
2019-04-24T10:50:27.905Z,48.79
2019-04-24T10:51:35.830Z,48.69
2019-04-24T10:52:05.378Z,48.49
2019-04-24T10:54:02.584Z,47.96
2019-04-24T10:55:11.672Z,48.66
2019-04-24T10:56:26.461Z,47.96
2019-04-24T10:58:05.394Z,47.94
2019-04-24T10:59:03.412Z,48.16
2019-04-24T11:00:06.028Z,47.94
2019-04-24T11:01:20.171Z,48.66
2019-04-24T11:03:44.966Z,47.84
2019-04-24T11:04:05.336Z,47.14
2019-04-24T11:05:33.875Z,47.44
2019-04-24T11:06:04.291Z,47.04
2019-04-24T11:07:19.618Z,47.34
2019-04-24T11:09:33.760Z,47.42
2019-04-24T11:11:11.070Z,46.92
2019-04-24T11:12:12.768Z,46.81
2019-04-24T11:14:13.815Z,47.30
2019-04-24T11:15:12.337Z,47.39
2019-04-24T11:16:19.284Z,46.62
2019-04-24T11:18:09.425Z,47.42
2019-04-24T11:20:08.037Z,47.04
2019-04-24T11:21:37.669Z,47.64
2019-04-24T11:22:25.410Z,47.14
2019-04-24T11:23:13.732Z,47.74
2019-04-24T11:24:20.192Z,46.81
2019-04-24T11:27:20.968Z,46.72
2019-04-24T11:28:25.964Z,46.51
2019-04-24T11:29:23.204Z,46.72
2019-04-24T11:30:13.839Z,47.11
2019-04-24T11:31:11.789Z,46.59
2019-04-24T11:32:19.592Z,46.50
2019-04-24T11:33:21.816Z,46.37
2019-04-24T11:36:48.318Z,46.35
2019-04-24T11:38:12.186Z,45.15
2019-04-24T11:39:18.090Z,45.05
2019-04-24T11:40:30.374Z,45.03
2019-04-24T11:41:09.054Z,45.23
2019-04-24T11:42:04.810Z,44.95
2019-04-24T11:43:24.974Z,45.25
2019-04-24T11:44:14.532Z,45.03
2019-04-24T11:46:22.560Z,44.21
2019-04-24T11:46:29.703Z,45.33
2019-04-24T11:48:12.092Z,44.41
2019-04-24T11:49:15.094Z,44.63
2019-04-24T11:50:15.908Z,44.63
2019-04-24T11:53:14.508Z,43.79
2019-04-24T11:54:03.403Z,43.91
2019-04-24T11:55:15.606Z,44.38
2019-04-24T11:56:04.305Z,43.99
2019-04-24T11:57:21.261Z,43.99
2019-04-24T11:58:22.075Z,43.59
2019-04-24T11:58:48.346Z,44.09
2019-04-24T11:59:50.242Z,43.27
2019-04-24T12:00:59.518Z,43.27
2019-04-24T12:02:57.735Z,43.47
2019-04-24T12:04:16.349Z,43.65
2019-04-24T12:05:16.012Z,43.65
2019-04-24T12:06:06.372Z,42.65
2019-04-24T12:07:09.995Z,42.85
2019-04-24T12:08:07.028Z,42.95
2019-04-24T12:11:18.576Z,42.77
2019-04-24T12:12:00.356Z,42.67
2019-04-24T12:13:09.971Z,43.09
2019-04-24T12:15:05.181Z,42.69
2019-04-24T12:16:53.343Z,43.49
2019-04-24T12:18:08.507Z,44.29
2019-04-24T12:19:05.927Z,43.19
2019-04-24T12:21:16.161Z,43.99
2019-04-24T12:23:10.181Z,43.87
2019-04-24T12:24:07.050Z,43.07
2019-04-24T12:25:02.724Z,42.85
2019-04-24T12:26:15.221Z,42.35
2019-04-24T12:26:53.040Z,43.95
2019-04-24T12:28:08.183Z,43.37
2019-04-24T12:29:10.527Z,43.77
2019-04-24T12:30:00.247Z,43.37
2019-04-24T12:30:56.103Z,43.57
2019-04-24T12:32:06.837Z,42.97
2019-04-24T12:33:54.817Z,43.89
2019-04-24T12:35:01.938Z,43.29
2019-04-24T12:36:05.960Z,42.99
2019-04-24T12:37:04.975Z,43.67
2019-04-24T12:39:03.293Z,42.99
2019-04-24T12:40:07.228Z,42.97
2019-04-24T12:41:05.671Z,42.29
2019-04-24T12:42:04.076Z,43.59
2019-04-24T12:43:08.377Z,43.59
2019-04-24T12:44:12.341Z,43.19
2019-04-24T12:45:03.595Z,43.49
2019-04-24T12:46:25.290Z,43.19
2019-04-24T12:48:03.975Z,43.69
2019-04-24T12:49:03.782Z,43.49
2019-04-24T12:50:17.657Z,43.51
2019-04-24T12:53:08.525Z,44.49
2019-04-24T12:54:21.546Z,43.99
2019-04-24T12:56:27.541Z,43.99
2019-04-24T12:57:12.068Z,43.49
2019-04-24T12:59:07.348Z,43.49
2019-04-24T12:59:58.619Z,43.59
2019-04-24T13:01:20.513Z,43.07
2019-04-24T13:03:06.791Z,43.49
2019-04-24T13:06:57.898Z,44.38
2019-04-24T13:08:11.364Z,43.89
2019-04-24T13:10:11.694Z,43.67
2019-04-24T13:11:10.678Z,43.67
2019-04-24T13:12:17.595Z,43.27
2019-04-24T13:13:24.829Z,43.15
2019-04-24T13:14:16.623Z,42.47
2019-04-24T13:16:05.339Z,42.87
2019-04-24T13:19:37.158Z,42.95
2019-04-24T13:20:41.629Z,42.95
2019-04-24T13:21:45.475Z,42.75
2019-04-24T13:22:44.962Z,43.55
2019-04-24T13:23:51.946Z,43.65
2019-04-24T13:24:55.348Z,43.45
2019-04-24T13:27:12.740Z,43.55
2019-04-24T13:28:23.904Z,42.95
2019-04-24T13:29:15.626Z,43.45
2019-04-24T13:30:10.429Z,43.85
2019-04-24T13:32:11.914Z,43.75
2019-04-24T13:33:14.530Z,42.45
2019-04-24T13:34:16.786Z,42.77
2019-04-24T13:35:11.839Z,43.57
2019-04-24T13:39:04.027Z,42.87
2019-04-24T13:40:07.489Z,42.37
2019-04-24T13:41:00.055Z,42.45
2019-04-24T13:42:11.190Z,42.85
2019-04-24T13:43:15.074Z,43.05
2019-04-24T13:44:10.361Z,42.85
2019-04-24T13:45:11.446Z,42.85
2019-04-24T13:46:03.557Z,42.95
2019-04-24T13:47:06.047Z,42.95
2019-04-24T13:48:17.676Z,43.65
2019-04-24T13:49:06.599Z,42.93
2019-04-24T13:50:10.954Z,42.93
2019-04-24T13:51:05.072Z,42.73
2019-04-24T13:52:51.302Z,43.13
2019-04-24T13:53:32.392Z,42.33
2019-04-24T13:54:13.567Z,42.83
2019-04-24T13:55:58.222Z,42.43
2019-04-24T13:57:10.917Z,42.63
2019-04-24T13:58:16.058Z,42.63
2019-04-24T13:59:06.279Z,42.55
2019-04-24T14:00:13.955Z,42.73
2019-04-24T14:02:02.566Z,42.83
2019-04-24T14:03:24.630Z,42.53
2019-04-24T14:04:11.997Z,42.71
2019-04-24T14:05:11.285Z,42.63
2019-04-24T14:06:25.056Z,42.63
2019-04-24T14:07:11.525Z,42.61
2019-04-24T14:08:24.187Z,42.51
2019-04-24T14:09:26.403Z,41.82
2019-04-24T14:11:31.022Z,42.13
2019-04-24T14:13:00.503Z,42.53
2019-04-24T14:15:26.663Z,42.41
2019-04-24T14:17:01.993Z,42.73
2019-04-24T14:18:13.466Z,41.74
2019-04-24T14:19:16.924Z,42.31
2019-04-24T14:21:03.087Z,41.71
2019-04-24T14:22:00.717Z,41.12
2019-04-24T14:23:11.719Z,41.12
2019-04-24T14:27:07.194Z,41.03
2019-04-24T14:28:19.782Z,40.84
2019-04-24T14:29:21.871Z,41.53
2019-04-24T14:30:03.641Z,42.03
2019-04-24T14:31:11.885Z,41.12
2019-04-24T14:33:13.471Z,41.12
2019-04-24T14:34:17.194Z,40.52
2019-04-24T14:35:18.715Z,40.00
2019-04-24T14:36:13.902Z,40.20
2019-04-24T14:38:20.799Z,40.70
2019-04-24T14:40:21.793Z,41.09
2019-04-24T14:41:20.651Z,40.60
2019-04-24T14:42:14.958Z,41.09
2019-04-24T14:43:17.259Z,41.00
2019-04-24T14:47:13.409Z,41.30
2019-04-24T14:48:05.898Z,41.09
2019-04-24T14:49:12.176Z,41.08
2019-04-24T14:50:16.116Z,40.80
2019-04-24T14:51:04.876Z,40.90
2019-04-24T14:52:15.012Z,41.17
2019-04-24T14:52:56.991Z,41.09
2019-04-24T14:56:09.165Z,41.09
2019-04-24T14:57:08.274Z,40.80
2019-04-24T14:59:11.296Z,41.08
2019-04-24T15:00:11.217Z,41.09
2019-04-24T15:01:14.702Z,40.50
2019-04-24T15:02:11.498Z,40.80
2019-04-24T15:03:14.174Z,40.80
2019-04-24T15:04:08.904Z,41.09
2019-04-24T15:06:19.976Z,41.00
2019-04-24T15:07:11.372Z,41.20
2019-04-24T15:09:08.395Z,42.41
2019-04-24T15:10:08.000Z,41.42
2019-04-24T15:11:04.402Z,41.39
2019-04-24T15:13:12.995Z,41.09
2019-04-24T15:14:15.155Z,41.09
2019-04-24T15:16:30.562Z,42.09
2019-04-24T15:17:11.701Z,41.69
2019-04-24T15:18:05.850Z,40.80
2019-04-24T15:19:12.944Z,41.09
2019-04-24T15:21:07.391Z,41.20
2019-04-24T15:22:13.636Z,41.89
2019-04-24T15:25:26.116Z,41.09
2019-04-24T15:26:12.689Z,41.09
2019-04-24T15:27:06.837Z,41.09
2019-04-24T15:28:10.555Z,41.09
2019-04-24T15:29:19.907Z,40.90
2019-04-24T15:30:07.363Z,41.09
2019-04-24T15:31:03.574Z,40.82
2019-04-24T15:32:22.026Z,41.31
2019-04-24T15:33:03.233Z,41.20
2019-04-24T15:35:27.215Z,41.02
2019-04-24T15:36:10.397Z,41.20
2019-04-24T15:37:11.871Z,41.20
2019-04-24T15:38:02.573Z,41.79
2019-04-24T15:39:04.071Z,42.09
2019-04-24T15:40:30.963Z,41.20
2019-04-24T15:41:17.032Z,41.00
2019-04-24T15:42:16.357Z,41.30
2019-04-24T15:43:15.894Z,41.09
2019-04-24T15:44:04.802Z,41.09
2019-04-24T15:45:12.291Z,41.22
2019-04-24T15:47:24.307Z,41.79
2019-04-24T15:49:04.030Z,41.39
2019-04-24T15:50:12.579Z,41.20
2019-04-24T15:51:23.001Z,42.19
2019-04-24T15:51:35.451Z,40.90
2019-04-24T15:52:33.821Z,40.92
2019-04-24T15:53:33.800Z,41.00
2019-04-24T15:54:33.815Z,40.82
2019-04-24T15:55:33.764Z,41.09
2019-04-24T15:56:33.739Z,40.72
2019-04-24T15:57:35.387Z,41.12
2019-04-24T15:58:46.274Z,41.02
2019-04-24T16:00:04.637Z,40.82
2019-04-24T16:01:18.469Z,40.92
2019-04-24T16:02:04.368Z,40.62
2019-04-24T16:03:10.760Z,41.12
2019-04-24T16:04:17.809Z,41.42
2019-04-24T16:04:53.910Z,41.42
2019-04-24T16:05:33.555Z,41.42
2019-04-24T16:06:33.538Z,41.02
2019-04-24T16:07:33.511Z,41.12
2019-04-24T16:08:33.501Z,41.22
2019-04-24T16:09:33.506Z,40.12
2019-04-24T16:10:33.458Z,40.52
2019-04-24T16:11:33.442Z,40.44
2019-04-24T16:12:33.430Z,41.24
2019-04-24T16:13:39.855Z,40.92
2019-04-24T16:14:58.285Z,41.02
2019-04-24T16:16:17.723Z,40.92
2019-04-24T16:17:01.441Z,41.12
2019-04-24T16:20:12.221Z,41.31
2019-04-24T16:21:10.385Z,41.02
2019-04-24T16:22:00.064Z,41.12
2019-04-24T16:22:59.704Z,40.92
2019-04-24T16:24:28.986Z,40.92
2019-04-24T16:25:06.215Z,41.02
2019-04-24T16:25:56.807Z,40.92
2019-04-24T16:27:14.314Z,40.82
2019-04-24T16:28:09.655Z,41.09
2019-04-24T16:29:10.624Z,40.70
2019-04-24T16:30:09.016Z,40.80
2019-04-24T16:31:08.265Z,40.40
2019-04-24T16:32:37.033Z,40.48
2019-04-24T16:34:00.051Z,39.78
2019-04-24T16:38:08.920Z,39.95
2019-04-24T16:39:04.448Z,39.75
2019-04-24T16:40:31.174Z,39.03
2019-04-24T16:41:10.313Z,38.71
2019-04-24T16:43:17.984Z,38.70
2019-04-24T16:46:35.080Z,38.00
2019-04-24T16:49:02.760Z,38.58
2019-04-24T16:52:08.714Z,38.81
2019-04-24T16:54:05.852Z,38.22
2019-04-24T16:55:02.557Z,38.10
2019-04-24T16:55:53.947Z,37.81
2019-04-24T16:58:13.517Z,37.90
2019-04-24T17:00:14.247Z,38.10
2019-04-24T17:02:03.684Z,37.81
2019-04-24T17:03:12.698Z,38.22
2019-04-24T17:04:24.137Z,37.60
2019-04-24T17:06:12.354Z,37.23
2019-04-24T17:08:11.070Z,37.03
2019-04-24T17:09:11.302Z,37.03
2019-04-24T17:10:05.287Z,37.13
2019-04-24T17:11:09.948Z,37.32
2019-04-24T17:12:02.099Z,37.41
2019-04-24T17:13:20.555Z,37.94
2019-04-24T17:14:10.688Z,37.76
2019-04-24T17:14:56.479Z,37.94
2019-04-24T17:16:06.897Z,37.32
2019-04-24T17:19:14.326Z,37.03
2019-04-24T17:23:00.855Z,38.35
2019-04-24T17:25:04.211Z,38.57
2019-04-24T17:26:07.472Z,38.16
2019-04-24T17:27:07.149Z,38.97
2019-04-24T17:29:07.062Z,39.09
2019-04-24T17:32:04.129Z,40.40
2019-04-24T17:36:06.716Z,42.11
2019-04-24T17:36:31.817Z,42.71
2019-04-24T17:37:31.696Z,42.93
2019-04-24T17:38:31.653Z,43.75
2019-04-24T17:39:31.634Z,43.85
2019-04-24T17:40:31.617Z,43.98
2019-04-24T17:41:38.833Z,43.98
2019-04-24T17:42:47.700Z,44.27
2019-04-24T17:44:10.569Z,44.70
2019-04-24T17:46:04.721Z,45.39
2019-04-24T17:47:12.756Z,45.42
2019-04-24T17:48:02.811Z,45.12
2019-04-24T17:49:09.242Z,45.94
2019-04-24T17:50:14.852Z,45.94
2019-04-24T17:51:04.634Z,46.54
2019-04-24T17:52:02.770Z,46.44
2019-04-24T17:53:08.250Z,46.56
2019-04-24T17:54:05.081Z,47.46
2019-04-24T17:54:59.485Z,46.96
2019-04-24T17:55:53.677Z,46.76
2019-04-24T17:57:07.150Z,46.68
2019-04-24T17:58:33.296Z,47.71
2019-04-24T17:59:31.939Z,47.99
2019-04-24T18:00:32.119Z,48.41
2019-04-24T18:01:31.361Z,48.31
2019-04-24T18:02:31.228Z,48.21
2019-04-24T18:03:31.122Z,48.83
2019-04-24T18:04:31.334Z,48.93
2019-04-24T18:05:31.163Z,48.43
2019-04-24T18:06:31.789Z,49.16
2019-04-24T18:07:31.550Z,49.56